createdAt,value
2019-05-10T00:00:19.287Z,94117.52
2019-05-10T00:03:07.318Z,94108.20
2019-05-10T00:05:55.267Z,94106.36
2019-05-10T00:08:43.203Z,94105.58
2019-05-10T00:11:32.775Z,94099.44
2019-05-10T00:14:24.711Z,94095.71
2019-05-10T00:16:58.556Z,94106.55
2019-05-10T00:19:28.911Z,94111.63
2019-05-10T00:21:59.435Z,94103.67
2019-05-10T00:24:29.904Z,94108.47
2019-05-10T00:27:00.489Z,94103.95
2019-05-10T00:29:30.984Z,94103.97
2019-05-10T00:32:01.784Z,94105.56
2019-05-10T00:34:32.320Z,94106.86
2019-05-10T00:37:02.811Z,94106.84
2019-05-10T00:39:33.374Z,94105.58
2019-05-10T00:42:04.328Z,94098.41
2019-05-10T00:44:34.709Z,94101.06
2019-05-10T00:47:05.186Z,94098.38
2019-05-10T00:49:35.663Z,94104.99
2019-05-10T00:52:07.177Z,94100.75
2019-05-10T00:54:37.787Z,94111.33
2019-05-10T00:57:08.388Z,94114.00
2019-05-10T00:59:38.899Z,94110.53
2019-05-10T01:02:09.344Z,94115.02
2019-05-10T01:04:39.752Z,94112.63
2019-05-10T01:07:10.094Z,94107.59
2019-05-10T01:09:40.433Z,94114.35
2019-05-10T01:12:10.898Z,94109.62
2019-05-10T01:14:41.162Z,94115.16
2019-05-10T01:17:11.519Z,94112.76
2019-05-10T01:19:41.955Z,94107.49
2019-05-10T01:22:12.783Z,94118.30
2019-05-10T01:24:43.164Z,94117.28
2019-05-10T01:27:13.835Z,94116.52
2019-05-10T01:29:44.575Z,94124.20
2019-05-10T01:32:15.181Z,94120.00
2019-05-10T01:34:45.615Z,94121.05
2019-05-10T01:37:16.122Z,94120.25
2019-05-10T01:39:46.586Z,94119.74
2019-05-10T01:42:16.949Z,94116.75
2019-05-10T01:44:47.440Z,94120.51
2019-05-10T01:47:18.814Z,94118.40
2019-05-10T01:49:49.105Z,94125.57
2019-05-10T01:52:19.517Z,94125.01
2019-05-10T01:54:50.119Z,94117.59
2019-05-10T01:57:20.418Z,94122.91
2019-05-10T01:59:50.811Z,94124.23
2019-05-10T02:02:21.388Z,94115.22
2019-05-10T02:04:52.023Z,94122.09
2019-05-10T02:07:22.725Z,94119.22
2019-05-10T02:09:53.244Z,94120.25
2019-05-10T02:12:23.601Z,94118.67
2019-05-10T02:14:54.198Z,94119.40
2019-05-10T02:17:24.794Z,94123.08
2019-05-10T02:19:55.182Z,94118.33
2019-05-10T02:22:25.699Z,94118.31
2019-05-10T02:24:56.305Z,94125.44
2019-05-10T02:27:26.950Z,94123.53
2019-05-10T02:29:57.596Z,94126.73
2019-05-10T02:32:28.083Z,94123.53
2019-05-10T02:34:58.901Z,94128.81
2019-05-10T02:37:29.595Z,94124.82
2019-05-10T02:40:00.343Z,94131.95
2019-05-10T02:42:30.828Z,94134.87
2019-05-10T02:45:01.712Z,94136.90
2019-05-10T02:47:32.638Z,94143.80
2019-05-10T02:50:03.284Z,94140.36
2019-05-10T02:52:33.994Z,94137.42
2019-05-10T02:55:04.434Z,94144.00
2019-05-10T02:57:35.401Z,94145.59
2019-05-10T03:00:06.087Z,94146.89
2019-05-10T03:02:36.983Z,94139.70
2019-05-10T03:05:07.821Z,94142.01
2019-05-10T03:07:38.650Z,94143.63
2019-05-10T03:10:10.318Z,94144.58
2019-05-10T03:12:41.876Z,94137.50
2019-05-10T03:15:13.102Z,94136.56
2019-05-10T03:17:43.574Z,94144.86
2019-05-10T03:20:14.488Z,94144.28
2019-05-10T03:22:45.304Z,94144.00
2019-05-10T03:25:16.206Z,94139.31
2019-05-10T03:27:46.853Z,94147.78
2019-05-10T03:30:17.385Z,94151.70
2019-05-10T03:32:47.987Z,94152.88
2019-05-10T03:35:18.467Z,94152.66
2019-05-10T03:37:49.189Z,94160.66
2019-05-10T03:40:19.383Z,94165.95
2019-05-10T03:42:49.976Z,94160.08
2019-05-10T03:45:20.248Z,94156.39
2019-05-10T03:47:50.475Z,94159.66
2019-05-10T03:50:21.210Z,94163.65
2019-05-10T03:52:52.711Z,94162.08
2019-05-10T03:55:23.319Z,94162.66
2019-05-10T03:58:02.621Z,94186.53
2019-05-10T04:00:33.294Z,94221.11
2019-05-10T04:03:03.736Z,94225.16
2019-05-10T04:05:34.468Z,94225.67
2019-05-10T04:08:04.929Z,94231.34
2019-05-10T04:10:35.612Z,94238.55
2019-05-10T04:13:06.144Z,94243.23
2019-05-10T04:15:36.838Z,94248.39
2019-05-10T04:18:07.147Z,94244.95
2019-05-10T04:20:37.684Z,94244.88
2019-05-10T04:23:08.131Z,94248.00
2019-05-10T04:25:38.710Z,94237.26
2019-05-10T04:28:09.281Z,94258.19
2019-05-10T04:30:39.889Z,94271.20
2019-05-10T04:33:10.201Z,94265.93
2019-05-10T04:35:40.830Z,94263.59
2019-05-10T04:38:12.483Z,94255.13
2019-05-10T04:40:43.073Z,94256.64
2019-05-10T04:43:13.730Z,94259.59
2019-05-10T04:45:44.183Z,94264.92
2019-05-10T04:48:14.540Z,94264.92
2019-05-10T04:50:48.785Z,94259.22
2019-05-10T04:53:16.962Z,94267.28
2019-05-10T04:55:47.314Z,94266.55
2019-05-10T04:58:17.752Z,94271.14
2019-05-10T05:00:48.389Z,94268.64
2019-05-10T05:03:19.017Z,94270.69
2019-05-10T05:05:49.629Z,94272.89
2019-05-10T05:08:20.314Z,94269.73
2019-05-10T05:10:51.016Z,94268.00
2019-05-10T05:13:21.488Z,94269.69
2019-05-10T05:15:52.078Z,94271.60
2019-05-10T05:18:22.760Z,94267.45
2019-05-10T05:20:53.267Z,94272.56
2019-05-10T05:23:23.830Z,94275.75
2019-05-10T05:25:54.406Z,94272.61
2019-05-10T05:28:24.993Z,94281.62
2019-05-10T05:30:55.670Z,94282.23
2019-05-10T05:33:25.974Z,94286.77
2019-05-10T05:35:56.639Z,94293.11
2019-05-10T05:38:27.193Z,94287.84
2019-05-10T05:40:57.544Z,94293.44
2019-05-10T05:43:28.109Z,94299.03
2019-05-10T05:45:59.237Z,94298.00
2019-05-10T05:48:40.174Z,94292.94
2019-05-10T05:51:02.080Z,94296.38
2019-05-10T05:53:35.911Z,94298.52
2019-05-10T05:56:12.870Z,94307.83
2019-05-10T05:58:44.609Z,94303.52
2019-05-10T06:01:24.734Z,94304.84
2019-05-10T06:03:44.422Z,94308.34
2019-05-10T06:06:20.500Z,94311.77
2019-05-10T06:08:47.624Z,94317.61
2019-05-10T06:11:18.379Z,94330.86
2019-05-10T06:13:49.019Z,94328.64
2019-05-10T06:16:22.182Z,94329.72
2019-05-10T06:18:51.428Z,94331.25
2019-05-10T06:21:24.943Z,94332.22
2019-05-10T06:23:54.221Z,94336.12
2019-05-10T06:26:28.553Z,94333.47
2019-05-10T06:29:03.367Z,94331.61
2019-05-10T06:31:29.045Z,94331.95
2019-05-10T06:33:59.697Z,94329.52
2019-05-10T06:36:30.125Z,94334.69
2019-05-10T06:39:00.675Z,94333.67
2019-05-10T06:41:32.669Z,94335.32
2019-05-10T06:44:03.046Z,94338.05
2019-05-10T06:46:33.437Z,94339.37
2019-05-10T06:49:08.270Z,94342.89
2019-05-10T06:51:36.305Z,94352.23
2019-05-10T06:54:06.515Z,94353.09
2019-05-10T06:56:37.045Z,94362.92
2019-05-10T06:59:13.507Z,94360.84
2019-05-10T07:01:45.217Z,94358.17
2019-05-10T07:04:12.035Z,94366.16
2019-05-10T07:06:42.716Z,94365.64
2019-05-10T07:09:13.191Z,94368.30
2019-05-10T07:11:43.882Z,94368.82
2019-05-10T07:14:14.454Z,94371.73
2019-05-10T07:16:45.248Z,94377.79
2019-05-10T07:19:15.816Z,94376.48
2019-05-10T07:21:51.012Z,94368.52
2019-05-10T07:24:25.018Z,94366.42
2019-05-10T07:26:51.032Z,94379.92
2019-05-10T07:29:30.190Z,94382.55
2019-05-10T07:31:53.827Z,94389.98
2019-05-10T07:34:24.118Z,94384.11
2019-05-10T07:36:54.948Z,94384.09
2019-05-10T07:39:25.477Z,94388.33
2019-05-10T07:42:00.543Z,94391.33
2019-05-10T07:44:28.253Z,94393.98
2019-05-10T07:46:58.919Z,94396.09
2019-05-10T07:49:32.334Z,94398.42
2019-05-10T07:52:02.982Z,94395.00
2019-05-10T07:54:37.417Z,94398.66
2019-05-10T07:57:06.461Z,94405.08
2019-05-10T07:59:49.438Z,94408.55
2019-05-10T08:02:12.832Z,94406.44
2019-05-10T08:04:41.775Z,94413.28
2019-05-10T08:07:12.443Z,94411.41
2019-05-10T08:09:45.248Z,94415.91
2019-05-10T08:12:15.311Z,94417.95
2019-05-10T08:14:50.098Z,94422.97
2019-05-10T08:17:19.188Z,94419.46
2019-05-10T08:19:49.821Z,94419.50
2019-05-10T08:22:22.831Z,94415.52
2019-05-10T08:24:56.042Z,94420.89
2019-05-10T08:27:24.535Z,94423.09
2019-05-10T08:30:17.962Z,94425.84
2019-05-10T08:32:29.962Z,94417.43
2019-05-10T08:34:58.903Z,94423.30
2019-05-10T08:37:35.999Z,94417.56
2019-05-10T08:40:03.126Z,94413.05
2019-05-10T08:42:44.169Z,94419.14
2019-05-10T08:45:08.771Z,94425.23
2019-05-10T08:47:39.708Z,94428.38
2019-05-10T08:50:22.365Z,94432.59
2019-05-10T08:52:42.495Z,94439.22
2019-05-10T08:55:14.177Z,94437.87
2019-05-10T08:57:49.023Z,94435.44
2019-05-10T09:00:16.413Z,94435.76
2019-05-10T09:02:46.857Z,94444.81
2019-05-10T09:05:20.963Z,94439.75
2019-05-10T09:07:51.926Z,94446.14
2019-05-10T09:10:22.868Z,94445.57
2019-05-10T09:12:57.871Z,94430.06
2019-05-10T09:15:25.635Z,94443.39
2019-05-10T09:17:58.257Z,94444.44
2019-05-10T09:20:28.478Z,94446.53
2019-05-10T09:22:59.050Z,94448.80
2019-05-10T09:25:31.557Z,94447.20
2019-05-10T09:28:10.395Z,94443.97
2019-05-10T09:30:35.448Z,94443.48
2019-05-10T09:33:11.424Z,94449.08
2019-05-10T09:35:39.008Z,94453.14
2019-05-10T09:38:12.250Z,94454.74
2019-05-10T09:40:50.613Z,94454.17
2019-05-10T09:43:14.875Z,94450.63
2019-05-10T09:45:45.856Z,94445.19
2019-05-10T09:48:16.407Z,94443.19
2019-05-10T09:50:47.449Z,94443.64
2019-05-10T09:53:25.445Z,94453.31
2019-05-10T09:55:59.072Z,94452.22
2019-05-10T09:58:23.052Z,94455.66
2019-05-10T10:01:10.305Z,94453.87
2019-05-10T10:03:29.569Z,94457.91
2019-05-10T10:06:05.594Z,94460.64
2019-05-10T10:08:30.567Z,94460.13
2019-05-10T10:11:10.462Z,94471.58
2019-05-10T10:13:40.137Z,94474.75
2019-05-10T10:16:10.324Z,94481.64
2019-05-10T10:18:38.029Z,94470.22
2019-05-10T10:21:10.360Z,94480.33
2019-05-10T10:23:40.816Z,94481.66
2019-05-10T10:26:12.838Z,94483.80
2019-05-10T10:28:43.777Z,94488.56
2019-05-10T10:31:26.158Z,94489.61
2019-05-10T10:33:54.946Z,94492.27
2019-05-10T10:36:19.171Z,94500.25
2019-05-10T10:38:49.951Z,94494.14
2019-05-10T10:41:26.041Z,94492.30
2019-05-10T10:43:52.380Z,94495.48
2019-05-10T10:46:23.168Z,94489.11
2019-05-10T10:48:53.925Z,94484.61
2019-05-10T10:51:26.490Z,94485.13
2019-05-10T10:53:58.263Z,94484.20
2019-05-10T10:56:29.109Z,94483.89
2019-05-10T10:58:59.748Z,94485.65
2019-05-10T11:01:44.787Z,94476.75
2019-05-10T11:04:08.092Z,94476.11
2019-05-10T11:06:34.691Z,94467.75
2019-05-10T11:09:06.613Z,94472.40
2019-05-10T11:11:39.296Z,94473.00
2019-05-10T11:14:11.064Z,94475.77
2019-05-10T11:16:41.497Z,94472.91
2019-05-10T11:19:15.633Z,94470.05
2019-05-10T11:21:44.321Z,94461.91
2019-05-10T11:24:17.903Z,94459.74
2019-05-10T11:26:51.690Z,94467.89
2019-05-10T11:29:26.458Z,94468.08
2019-05-10T11:32:12.193Z,94473.23
2019-05-10T11:34:29.412Z,94471.62
2019-05-10T11:36:57.863Z,94472.66
2019-05-10T11:39:33.229Z,94473.02
2019-05-10T11:42:05.130Z,94473.02
2019-05-10T11:44:32.525Z,94473.55
2019-05-10T11:47:03.193Z,94469.50
2019-05-10T11:49:33.548Z,94471.94
2019-05-10T11:52:05.228Z,94466.44
2019-05-10T11:54:35.701Z,94469.98
2019-05-10T11:57:10.016Z,94473.79
2019-05-10T12:02:12.875Z,94474.86
2019-05-10T12:04:43.395Z,94469.84
2019-05-10T12:07:14.031Z,94478.31
2019-05-10T12:09:44.665Z,94471.09
2019-05-10T12:12:15.166Z,94475.03
2019-05-10T12:14:46.695Z,94470.91
2019-05-10T12:17:17.409Z,94471.08
2019-05-10T12:19:51.650Z,94472.45
2019-05-10T12:22:21.743Z,94466.09
2019-05-10T12:25:16.114Z,94473.11
2019-05-10T12:26:20.398Z,94475.31
2019-05-10T12:27:29.230Z,94484.01
2019-05-10T12:30:00.698Z,94491.95
2019-05-10T12:32:35.295Z,94480.26
2019-05-10T12:35:01.483Z,94478.69
2019-05-10T12:37:33.228Z,94476.56
2019-05-10T12:40:09.827Z,94482.73
2019-05-10T12:42:35.978Z,94500.09
2019-05-10T12:45:06.545Z,94486.80
2019-05-10T12:47:37.160Z,94481.38
2019-05-10T12:50:07.864Z,94485.53
2019-05-10T12:52:38.243Z,94482.13
2019-05-10T12:55:08.820Z,94481.73
2019-05-10T12:57:42.913Z,94487.52
2019-05-10T13:00:13.171Z,94488.08
2019-05-10T13:02:44.827Z,94487.02
2019-05-10T13:05:16.038Z,94475.74
2019-05-10T13:07:46.689Z,94479.03
2019-05-10T13:10:17.393Z,94476.06
2019-05-10T13:12:47.952Z,94476.01
2019-05-10T13:15:18.636Z,94480.86
2019-05-10T13:17:52.881Z,94473.43
2019-05-10T13:20:21.872Z,94479.51
2019-05-10T13:23:09.970Z,94477.75
2019-05-10T13:25:42.914Z,94482.14
2019-05-10T13:28:13.472Z,94487.23
2019-05-10T13:30:44.351Z,94484.28
2019-05-10T13:33:27.983Z,94485.95
2019-05-10T13:35:50.717Z,94485.75
2019-05-10T13:38:19.051Z,94485.03
2019-05-10T13:40:49.594Z,94478.70
2019-05-10T13:43:26.672Z,94483.45
2019-05-10T13:45:52.425Z,94487.57
2019-05-10T13:48:26.172Z,94480.80
2019-05-10T13:50:55.208Z,94476.05
2019-05-10T13:53:25.780Z,94466.23
2019-05-10T13:55:56.405Z,94464.27
2019-05-10T13:58:27.007Z,94461.66
2019-05-10T14:00:57.508Z,94460.52
2019-05-10T14:03:42.205Z,94468.36
2019-05-10T14:06:00.329Z,94476.02
2019-05-10T14:08:30.855Z,94471.23
2019-05-10T14:11:02.148Z,94467.66
2019-05-10T14:13:35.611Z,94463.64
2019-05-10T14:16:06.270Z,94459.06
2019-05-10T14:18:36.873Z,94460.39
2019-05-10T14:21:07.173Z,94466.84
2019-05-10T14:23:37.852Z,94463.12
2019-05-10T14:26:09.166Z,94479.34
2019-05-10T14:28:40.766Z,94477.18
2019-05-10T14:31:11.624Z,94476.84
2019-05-10T14:33:49.771Z,94468.31
2019-05-10T14:36:15.136Z,94463.69
2019-05-10T14:38:47.378Z,94456.02
2019-05-10T14:41:17.766Z,94452.92
2019-05-10T14:43:48.314Z,94448.40
2019-05-10T14:46:18.849Z,94455.83
2019-05-10T14:48:49.289Z,94455.29
2019-05-10T14:51:19.786Z,94458.47
2019-05-10T14:53:50.686Z,94458.22
2019-05-10T14:56:20.987Z,94458.59
2019-05-10T14:58:51.651Z,94458.00
2019-05-10T15:01:21.960Z,94462.82
2019-05-10T15:03:52.269Z,94461.42
2019-05-10T15:06:22.787Z,94462.34
2019-05-10T15:08:52.982Z,94465.66
2019-05-10T15:11:26.385Z,94464.34
2019-05-10T15:13:55.660Z,94467.70
2019-05-10T15:16:30.409Z,94457.25
2019-05-10T15:18:58.255Z,94462.33
2019-05-10T15:21:28.734Z,94462.02
2019-05-10T15:24:00.835Z,94463.06
2019-05-10T15:26:31.220Z,94462.64
2019-05-10T15:29:01.577Z,94466.00
2019-05-10T15:31:32.076Z,94474.33
2019-05-10T15:34:05.098Z,94470.67
2019-05-10T15:36:34.966Z,94463.76
2019-05-10T15:39:07.280Z,94468.28
2019-05-10T15:41:37.691Z,94469.61
2019-05-10T15:44:08.337Z,94467.34
2019-05-10T15:46:42.346Z,94468.81
2019-05-10T15:49:13.506Z,94464.16
2019-05-10T15:51:49.296Z,94464.22
2019-05-10T15:54:15.978Z,94459.53
2019-05-10T15:56:46.361Z,94461.63
2019-05-10T15:59:19.472Z,94456.13
2019-05-10T16:01:49.339Z,94457.16
2019-05-10T16:04:20.167Z,94457.16
2019-05-10T16:06:51.181Z,94459.83
2019-05-10T16:09:21.553Z,94464.14
2019-05-10T16:11:55.919Z,94462.32
2019-05-10T16:14:25.575Z,94463.36
2019-05-10T16:16:56.264Z,94461.21
2019-05-10T16:19:26.769Z,94466.33
2019-05-10T16:21:58.258Z,94460.52
2019-05-10T16:24:28.899Z,94466.13
2019-05-10T16:27:00.220Z,94467.94
2019-05-10T16:29:33.665Z,94465.60
2019-05-10T16:32:03.606Z,94474.16
2019-05-10T16:34:34.323Z,94466.44
2019-05-10T16:37:04.803Z,94469.20
2019-05-10T16:39:35.378Z,94464.41
2019-05-10T16:42:05.893Z,94472.41
2019-05-10T16:44:36.420Z,94470.87
2019-05-10T16:47:06.934Z,94474.55
2019-05-10T16:49:37.378Z,94476.14
2019-05-10T16:52:07.868Z,94476.66
2019-05-10T16:54:38.334Z,94482.00
2019-05-10T16:57:08.944Z,94486.81
2019-05-10T16:59:39.404Z,94486.53
2019-05-10T17:02:11.908Z,94488.69
2019-05-10T17:04:41.653Z,94488.11
2019-05-10T17:07:13.062Z,94491.86
2019-05-10T17:09:44.313Z,94496.81
2019-05-10T17:12:14.913Z,94499.97
2019-05-10T17:14:50.384Z,94502.10
2019-05-10T17:17:17.893Z,94500.83
2019-05-10T17:19:48.424Z,94504.63
2019-05-10T17:22:18.884Z,94502.50
2019-05-10T17:24:49.756Z,94507.84
2019-05-10T17:27:20.376Z,94505.55
2019-05-10T17:29:51.374Z,94511.42
2019-05-10T17:32:24.851Z,94509.30
2019-05-10T17:34:53.639Z,94510.14
2019-05-10T17:37:24.111Z,94508.81
2019-05-10T17:39:54.646Z,94514.24
2019-05-10T17:42:25.155Z,94517.14
2019-05-10T17:47:32.435Z,94533.22
2019-05-10T17:50:00.029Z,94523.62
2019-05-10T17:52:30.508Z,94528.95
2019-05-10T17:55:01.135Z,94535.61
2019-05-10T17:57:31.704Z,94538.05
2019-05-10T18:00:02.268Z,94539.08
2019-05-10T18:02:33.263Z,94538.28
2019-05-10T18:05:06.307Z,94549.20
2019-05-10T18:07:35.678Z,94549.80
2019-05-10T18:10:06.123Z,94553.80
2019-05-10T18:12:36.748Z,94558.34
2019-05-10T18:15:08.393Z,94562.87
2019-05-10T18:17:39.036Z,94564.71
2019-05-10T18:20:09.808Z,94563.12
2019-05-10T18:22:45.144Z,94573.25
2019-05-10T18:25:19.345Z,94574.32
2019-05-10T18:27:44.521Z,94583.09
2019-05-10T18:30:18.215Z,94583.34
2019-05-10T18:32:48.747Z,94581.98
2019-05-10T18:35:19.284Z,94579.59
2019-05-10T18:37:53.693Z,94583.84
2019-05-10T18:40:29.424Z,94579.03
2019-05-10T18:42:57.844Z,94582.47
2019-05-10T18:45:28.572Z,94584.56
2019-05-10T18:47:58.544Z,94589.64
2019-05-10T18:50:28.934Z,94592.31
2019-05-10T18:52:59.759Z,94595.78
2019-05-10T18:55:30.245Z,94595.75
2019-05-10T18:58:00.640Z,94599.67
2019-05-10T19:00:31.212Z,94604.56
2019-05-10T19:03:01.859Z,94603.02
2019-05-10T19:05:33.182Z,94614.47
2019-05-10T19:08:05.791Z,94616.25
2019-05-10T19:10:36.232Z,94618.83
2019-05-10T19:13:06.771Z,94626.30
2019-05-10T19:15:38.732Z,94632.15
2019-05-10T19:18:09.311Z,94629.69
2019-05-10T19:20:39.985Z,94629.85
2019-05-10T19:23:13.338Z,94633.84
2019-05-10T19:25:45.526Z,94636.16
2019-05-10T19:28:14.743Z,94638.75
2019-05-10T19:30:45.324Z,94636.26
2019-05-10T19:33:15.866Z,94633.33
2019-05-10T19:35:46.292Z,94629.31
2019-05-10T19:38:17.208Z,94637.46
2019-05-10T19:40:48.171Z,94639.56
2019-05-10T19:43:21.701Z,94642.48
2019-05-10T19:45:56.667Z,94638.02
2019-05-10T19:48:23.279Z,94638.27
2019-05-10T19:50:53.861Z,94641.20
2019-05-10T19:53:24.215Z,94646.83
2019-05-10T19:55:57.404Z,94645.08
2019-05-10T19:58:32.315Z,94651.50
2019-05-10T20:00:59.257Z,94644.07
2019-05-10T20:03:29.837Z,94649.83
2019-05-10T20:05:59.981Z,94657.74
2019-05-10T20:08:30.464Z,94656.66
2019-05-10T20:11:00.863Z,94660.54
2019-05-10T20:13:31.275Z,94673.31
2019-05-10T20:16:01.854Z,94669.41
2019-05-10T20:18:32.429Z,94668.19
2019-05-10T20:21:03.069Z,94671.67
2019-05-10T20:23:33.393Z,94672.44
2019-05-10T20:26:04.080Z,94671.14
2019-05-10T20:28:34.891Z,94677.78
2019-05-10T20:31:05.290Z,94673.37
2019-05-10T20:33:36.065Z,94676.11
2019-05-10T20:36:06.358Z,94678.75
2019-05-10T20:38:37.704Z,94682.61
2019-05-10T20:41:08.189Z,94680.72
2019-05-10T20:43:38.488Z,94681.97
2019-05-10T20:46:11.414Z,94692.09
2019-05-10T20:48:41.185Z,94687.70
2019-05-10T20:51:11.609Z,94693.45
2019-05-10T20:53:42.539Z,94699.90
2019-05-10T20:56:13.116Z,94708.17
2019-05-10T20:58:43.884Z,94705.33
2019-05-10T21:01:14.591Z,94713.13
2019-05-10T21:03:45.169Z,94715.70
2019-05-10T21:06:15.571Z,94714.45
2019-05-10T21:08:46.131Z,94710.50
2019-05-10T21:11:16.908Z,94718.17
2019-05-10T21:13:47.252Z,94716.56
2019-05-10T21:16:17.707Z,94718.01
2019-05-10T21:18:48.118Z,94715.80
2019-05-10T21:21:18.392Z,94718.06
2019-05-10T21:23:48.901Z,94719.80
2019-05-10T21:26:19.399Z,94722.95
2019-05-10T21:28:49.659Z,94722.95
2019-05-10T21:31:20.254Z,94721.67
2019-05-10T21:33:50.746Z,94727.27
2019-05-10T21:36:21.325Z,94732.23
2019-05-10T21:38:51.876Z,94728.56
2019-05-10T21:41:22.408Z,94737.18
2019-05-10T21:43:52.919Z,94735.75
2019-05-10T21:46:23.398Z,94744.78
2019-05-10T21:48:53.844Z,94740.47
2019-05-10T21:51:24.390Z,94749.27
2019-05-10T21:53:55.200Z,94745.31
2019-05-10T21:56:25.767Z,94748.29
2019-05-10T21:58:56.288Z,94745.41
2019-05-10T22:01:26.862Z,94754.15
2019-05-10T22:03:57.453Z,94756.87
2019-05-10T22:06:27.951Z,94757.67
2019-05-10T22:08:58.343Z,94757.80
2019-05-10T22:11:30.127Z,94750.62
2019-05-10T22:14:00.832Z,94762.19
2019-05-10T22:16:31.384Z,94755.63
2019-05-10T22:19:03.277Z,94757.23
2019-05-10T22:21:34.145Z,94759.36
2019-05-10T22:24:04.858Z,94762.56
2019-05-10T22:26:35.361Z,94755.73
2019-05-10T22:29:06.022Z,94752.44
2019-05-10T22:31:36.352Z,94747.14
2019-05-10T22:34:06.774Z,94744.68
2019-05-10T22:36:37.572Z,94751.98
2019-05-10T22:39:08.103Z,94752.80
2019-05-10T22:41:38.424Z,94757.10
2019-05-10T22:44:09.188Z,94761.39
2019-05-10T22:46:39.648Z,94763.08
2019-05-10T22:49:10.783Z,94758.42
2019-05-10T22:51:41.230Z,94752.50
2019-05-10T22:54:11.717Z,94756.80
2019-05-10T22:56:42.281Z,94753.98
2019-05-10T22:59:12.827Z,94756.81
2019-05-10T23:01:43.321Z,94760.16
2019-05-10T23:04:13.725Z,94762.26
2019-05-10T23:06:44.097Z,94760.65
2019-05-10T23:09:24.173Z,94757.09
2019-05-10T23:11:46.237Z,94748.67
2019-05-10T23:14:16.751Z,94747.23
2019-05-10T23:16:47.303Z,94742.34
2019-05-10T23:19:17.899Z,94747.44
2019-05-10T23:21:48.391Z,94749.07
2019-05-10T23:24:18.542Z,94750.51
2019-05-10T23:26:49.434Z,94747.12
2019-05-10T23:29:19.905Z,94756.31
2019-05-10T23:31:50.495Z,94756.52
2019-05-10T23:34:21.019Z,94753.50
2019-05-10T23:36:51.305Z,94759.25
2019-05-10T23:39:21.845Z,94765.80
2019-05-10T23:41:52.310Z,94760.91
2019-05-10T23:44:22.768Z,94768.75
2019-05-10T23:46:53.335Z,94769.68
2019-05-10T23:49:23.844Z,94764.20
2019-05-10T23:51:54.322Z,94761.91
2019-05-10T23:54:25.704Z,94758.69
2019-05-10T23:56:56.165Z,94762.29
2019-05-10T23:59:26.634Z,94764.68
